Time;durP1;ratioP1;P1;durP2;ratioP2;P2;SDS_P1;SDS_P2;PMS_P1;PMS_P2;Temp;Humidity;BMP_temperature;BMP_pressure;BME280_temperature;BME280_humidity;BME280_pressure;Samples;Min_cycle;Max_cycle;Signal;HPM_P1;HPM_P2
2023/05/14 00:00:24;;;;;;;;;;;21.70;40.70;;;;;;5132883;27;19920;-54
2023/05/14 00:02:49;;;;;;;;;;;21.70;40.50;;;;;;5130439;27;19994;-54
2023/05/14 00:05:15;;;;;;;;;;;21.70;40.60;;;;;;5130916;27;20371;-53
2023/05/14 00:07:40;;;;;;;;;;;21.70;40.70;;;;;;5132063;27;19923;-55
2023/05/14 00:10:06;;;;;;;;;;;21.70;40.50;;;;;;5111505;27;19923;-54
2023/05/14 00:12:31;;;;;;;;;;;21.70;40.60;;;;;;5128325;27;19956;-54
2023/05/14 00:14:57;;;;;;;;;;;21.60;40.50;;;;;;5132558;27;19955;-54
2023/05/14 00:17:22;;;;;;;;;;;21.60;40.70;;;;;;5131274;27;19915;-54
2023/05/14 00:19:48;;;;;;;;;;;21.60;40.50;;;;;;5126894;27;19950;-54
2023/05/14 00:22:13;;;;;;;;;;;21.60;40.60;;;;;;5120751;27;20010;-54
2023/05/14 00:24:38;;;;;;;;;;;21.60;40.60;;;;;;5113009;27;19915;-54
2023/05/14 00:27:05;;;;;;;;;;;21.60;40.60;;;;;;5131249;27;20010;-54
2023/05/14 00:29:30;;;;;;;;;;;21.60;40.80;;;;;;5122761;27;20325;-54
2023/05/14 00:31:56;;;;;;;;;;;21.60;40.80;;;;;;5123612;27;19912;-54
2023/05/14 00:34:21;;;;;;;;;;;21.60;40.60;;;;;;5132165;27;19911;-54
2023/05/14 00:36:47;;;;;;;;;;;21.60;40.70;;;;;;5130808;27;19966;-53
2023/05/14 00:39:12;;;;;;;;;;;21.60;40.70;;;;;;5132380;27;19950;-54
2023/05/14 00:41:38;;;;;;;;;;;21.60;40.70;;;;;;5129731;27;19926;-54
2023/05/14 00:44:03;;;;;;;;;;;21.50;40.70;;;;;;5127319;27;19924;-54
2023/05/14 00:46:29;;;;;;;;;;;21.60;40.70;;;;;;5127410;27;20390;-54
2023/05/14 00:48:54;;;;;;;;;;;21.60;40.60;;;;;;5121957;27;19915;-54
2023/05/14 00:51:20;;;;;;;;;;;21.50;40.80;;;;;;5133051;27;19915;-54
2023/05/14 00:53:45;;;;;;;;;;;21.50;40.70;;;;;;5114152;27;19956;-54
2023/05/14 00:56:11;;;;;;;;;;;21.50;40.70;;;;;;5132498;27;19907;-54
2023/05/14 00:58:37;;;;;;;;;;;21.50;40.80;;;;;;5131813;27;20355;-54
2023/05/14 01:01:02;;;;;;;;;;;21.50;40.80;;;;;;5132060;27;19912;-53
2023/05/14 01:03:29;;;;;;;;;;;21.50;41.10;;;;;;5131404;28;20440;-54
2023/05/14 01:06:13;;;;;;;;;;;21.50;40.90;;;;;;5130945;28;19912;-54
2023/05/14 01:08:57;;;;;;;;;;;21.50;40.80;;;;;;5131831;28;19915;-53
2023/05/14 01:11:29;;;;;;;;;;;21.50;41.10;;;;;;5128003;27;19981;-54
2023/05/14 01:13:57;;;;;;;;;;;21.40;40.90;;;;;;5107408;28;19919;-54
2023/05/14 01:16:23;;;;;;;;;;;21.40;41.00;;;;;;5131283;28;20040;-54
2023/05/14 01:18:49;;;;;;;;;;;21.40;41.00;;;;;;5130551;28;20010;-54
2023/05/14 01:21:32;;;;;;;;;;;21.40;41.00;;;;;;5130695;28;19923;-54
2023/05/14 01:23:58;;;;;;;;;;;21.40;41.10;;;;;;5113086;28;20010;-54
2023/05/14 01:26:23;;;;;;;;;;;21.40;41.10;;;;;;5131525;28;20048;-54
2023/05/14 01:28:48;;;;;;;;;;;21.40;41.00;;;;;;5126935;28;19919;-54
2023/05/14 01:31:16;;;;;;;;;;;21.40;41.10;;;;;;5122314;28;19919;-52
2023/05/14 01:33:41;;;;;;;;;;;21.40;41.20;;;;;;5094172;28;20385;-54
2023/05/14 01:36:07;;;;;;;;;;;21.40;41.20;;;;;;5127475;28;19965;-53
2023/05/14 01:38:32;;;;;;;;;;;21.40;41.20;;;;;;5124650;28;20386;-53
2023/05/14 01:40:58;;;;;;;;;;;21.30;41.10;;;;;;5108960;28;19915;-53
2023/05/14 01:43:23;;;;;;;;;;;21.40;41.10;;;;;;5129511;28;20424;-53
2023/05/14 01:45:49;;;;;;;;;;;21.40;41.20;;;;;;5130059;28;19993;-53
2023/05/14 01:48:14;;;;;;;;;;;21.40;41.10;;;;;;5131493;28;20018;-53
2023/05/14 01:50:40;;;;;;;;;;;21.40;41.10;;;;;;5127306;28;20287;-53
2023/05/14 01:53:05;;;;;;;;;;;21.40;41.30;;;;;;5132346;28;19911;-53
2023/05/14 01:55:31;;;;;;;;;;;21.30;40.70;;;;;;5131352;28;19914;-53
2023/05/14 01:57:56;;;;;;;;;;;21.30;41.30;;;;;;5131503;28;20379;-53
2023/05/14 02:00:22;;;;;;;;;;;21.30;41.20;;;;;;5132471;28;19915;-53
2023/05/14 02:02:47;;;;;;;;;;;21.40;41.30;;;;;;5110480;28;19923;-53
2023/05/14 02:05:13;;;;;;;;;;;21.30;41.20;;;;;;5131706;28;19988;-53
2023/05/14 02:07:38;;;;;;;;;;;21.30;41.30;;;;;;5130520;27;19915;-53
2023/05/14 02:10:04;;;;;;;;;;;21.30;41.30;;;;;;5132870;27;19971;-53
2023/05/14 02:12:29;;;;;;;;;;;21.30;41.50;;;;;;5134205;27;19940;-53
2023/05/14 02:14:55;;;;;;;;;;;21.20;41.30;;;;;;5116349;27;20339;-53
2023/05/14 02:17:20;;;;;;;;;;;21.20;41.40;;;;;;5113886;27;20321;-53
2023/05/14 02:19:46;;;;;;;;;;;21.20;41.50;;;;;;5134250;27;19907;-53
2023/05/14 02:22:11;;;;;;;;;;;21.20;41.50;;;;;;5126842;27;19946;-53
2023/05/14 02:24:37;;;;;;;;;;;21.20;41.50;;;;;;5131193;27;19976;-54
2023/05/14 02:27:02;;;;;;;;;;;21.30;41.60;;;;;;5134718;27;19911;-53
2023/05/14 02:29:28;;;;;;;;;;;21.20;41.50;;;;;;5127412;27;19915;-53
2023/05/14 02:31:53;;;;;;;;;;;21.20;41.50;;;;;;5130696;27;19915;-53
2023/05/14 02:34:19;;;;;;;;;;;21.20;41.60;;;;;;5133699;27;19952;-54
2023/05/14 02:36:44;;;;;;;;;;;21.20;41.50;;;;;;5115897;27;19916;-54
2023/05/14 02:39:10;;;;;;;;;;;21.10;41.40;;;;;;5132930;27;19912;-54
2023/05/14 02:41:35;;;;;;;;;;;21.20;41.60;;;;;;5129544;27;20363;-54
2023/05/14 02:44:01;;;;;;;;;;;21.20;41.60;;;;;;5121955;27;19919;-54
2023/05/14 02:46:26;;;;;;;;;;;21.10;41.50;;;;;;5134429;27;20006;-54
2023/05/14 02:48:51;;;;;;;;;;;21.10;41.70;;;;;;5131922;27;19979;-54
2023/05/14 02:51:18;;;;;;;;;;;21.10;41.60;;;;;;5130706;27;19919;-53
2023/05/14 02:53:44;;;;;;;;;;;21.10;41.70;;;;;;5131816;27;20013;-54
2023/05/14 02:56:09;;;;;;;;;;;21.10;41.60;;;;;;5133011;27;19954;-54
2023/05/14 02:58:35;;;;;;;;;;;21.10;41.70;;;;;;5133054;27;19911;-53
2023/05/14 03:01:00;;;;;;;;;;;21.10;41.70;;;;;;5131751;27;20339;-54
2023/05/14 03:03:25;;;;;;;;;;;21.10;41.70;;;;;;5114138;27;19922;-53
2023/05/14 03:05:51;;;;;;;;;;;21.10;41.70;;;;;;5132120;27;20000;-53
2023/05/14 03:08:16;;;;;;;;;;;21.10;41.70;;;;;;5132905;27;19916;-53
2023/05/14 03:10:42;;;;;;;;;;;21.10;41.70;;;;;;5133711;27;20002;-53
2023/05/14 03:13:07;;;;;;;;;;;21.10;41.80;;;;;;5134287;27;19915;-53
2023/05/14 03:15:33;;;;;;;;;;;21.00;41.70;;;;;;5132121;27;19911;-54
2023/05/14 03:17:58;;;;;;;;;;;21.00;41.80;;;;;;5132235;27;19911;-53
2023/05/14 03:20:24;;;;;;;;;;;21.00;41.80;;;;;;5132601;27;19911;-53
2023/05/14 03:22:50;;;;;;;;;;;21.10;41.80;;;;;;5129951;27;19916;-53
2023/05/14 03:25:15;;;;;;;;;;;21.10;41.80;;;;;;5111362;27;20018;-53
2023/05/14 03:27:41;;;;;;;;;;;21.00;41.80;;;;;;5127973;27;19915;-52
2023/05/14 03:30:06;;;;;;;;;;;21.10;41.90;;;;;;5125062;27;19911;-52
2023/05/14 03:32:32;;;;;;;;;;;21.00;41.80;;;;;;5125733;27;19958;-52
2023/05/14 03:34:57;;;;;;;;;;;21.00;41.80;;;;;;5130893;27;19937;-52
2023/05/14 03:37:23;;;;;;;;;;;21.00;41.90;;;;;;5130039;27;19912;-52
2023/05/14 03:39:48;;;;;;;;;;;21.00;42.00;;;;;;5126378;27;19989;-52
2023/05/14 03:42:14;;;;;;;;;;;21.00;42.00;;;;;;5122853;27;19923;-53
2023/05/14 03:44:39;;;;;;;;;;;21.00;42.00;;;;;;5130955;27;19955;-53
2023/05/14 03:47:05;;;;;;;;;;;21.00;42.00;;;;;;5130263;27;19911;-53
2023/05/14 03:49:30;;;;;;;;;;;21.00;42.10;;;;;;5129706;27;19923;-52
2023/05/14 03:51:58;;;;;;;;;;;20.90;42.00;;;;;;5131171;27;19908;-52
2023/05/14 03:54:23;;;;;;;;;;;21.00;42.20;;;;;;5133005;27;19911;-52
2023/05/14 03:56:49;;;;;;;;;;;20.90;42.10;;;;;;5128382;27;20379;-52
2023/05/14 03:59:14;;;;;;;;;;;20.90;42.10;;;;;;5125964;27;20374;-52
2023/05/14 04:01:40;;;;;;;;;;;20.90;42.10;;;;;;5130535;27;20295;-52
2023/05/14 04:04:05;;;;;;;;;;;20.90;42.10;;;;;;5130703;27;19915;-52
2023/05/14 04:06:31;;;;;;;;;;;20.90;42.10;;;;;;5131696;27;19912;-52
2023/05/14 04:08:57;;;;;;;;;;;20.90;42.10;;;;;;5132903;27;20396;-51
2023/05/14 04:11:22;;;;;;;;;;;20.90;42.10;;;;;;5132126;27;19922;-52
2023/05/14 04:13:48;;;;;;;;;;;20.90;42.20;;;;;;5128908;27;20010;-52
2023/05/14 04:16:13;;;;;;;;;;;20.90;42.30;;;;;;5132227;27;20299;-52
2023/05/14 04:18:39;;;;;;;;;;;20.90;42.30;;;;;;5130611;27;19918;-52
2023/05/14 04:21:04;;;;;;;;;;;20.80;42.20;;;;;;5132048;27;19915;-53
2023/05/14 04:23:30;;;;;;;;;;;20.90;42.40;;;;;;5106261;27;20297;-52
2023/05/14 04:25:56;;;;;;;;;;;20.80;42.40;;;;;;5096588;27;20310;-52
2023/05/14 04:28:21;;;;;;;;;;;20.80;42.40;;;;;;5123755;27;19969;-52
2023/05/14 04:30:47;;;;;;;;;;;20.90;42.50;;;;;;5104560;27;19930;-52
2023/05/14 04:33:12;;;;;;;;;;;20.80;42.50;;;;;;5127134;27;20430;-52
2023/05/14 04:35:38;;;;;;;;;;;20.80;42.50;;;;;;5130296;27;20365;-52
2023/05/14 04:38:03;;;;;;;;;;;20.80;42.60;;;;;;5129925;27;20420;-52
2023/05/14 04:40:30;;;;;;;;;;;20.90;42.70;;;;;;5131607;27;20507;-52
2023/05/14 04:42:55;;;;;;;;;;;20.80;42.70;;;;;;5112784;27;20017;-52
2023/05/14 04:45:21;;;;;;;;;;;20.80;42.80;;;;;;5112992;27;19958;-52
2023/05/14 04:47:46;;;;;;;;;;;20.70;42.70;;;;;;5126724;27;19940;-53
2023/05/14 04:50:12;;;;;;;;;;;20.80;42.70;;;;;;5130193;27;19998;-52
2023/05/14 04:52:37;;;;;;;;;;;20.70;42.70;;;;;;5123034;27;19911;-52
2023/05/14 04:55:03;;;;;;;;;;;20.70;42.70;;;;;;5132029;27;19951;-52
2023/05/14 04:57:28;;;;;;;;;;;20.70;42.70;;;;;;5130198;27;19920;-52
2023/05/14 04:59:53;;;;;;;;;;;20.70;42.70;;;;;;5130399;27;20656;-52
2023/05/14 05:02:19;;;;;;;;;;;20.70;42.70;;;;;;5130959;27;19916;-52
2023/05/14 05:04:46;;;;;;;;;;;20.70;42.70;;;;;;5113868;27;19915;-52
2023/05/14 05:07:12;;;;;;;;;;;20.80;42.80;;;;;;5129643;28;19916;-52
2023/05/14 05:09:37;;;;;;;;;;;20.80;42.80;;;;;;5131898;28;20061;-52
2023/05/14 05:12:03;;;;;;;;;;;20.80;42.80;;;;;;5131882;28;19945;-53
2023/05/14 05:14:28;;;;;;;;;;;20.80;42.80;;;;;;5130313;28;19911;-52
2023/05/14 05:16:54;;;;;;;;;;;20.80;42.90;;;;;;5128702;28;20419;-52
2023/05/14 05:19:19;;;;;;;;;;;20.80;42.90;;;;;;5104465;28;19915;-52
2023/05/14 05:21:45;;;;;;;;;;;20.80;42.90;;;;;;5129766;28;20363;-52
2023/05/14 05:24:12;;;;;;;;;;;20.80;42.90;;;;;;5110977;28;19922;-52
2023/05/14 05:26:37;;;;;;;;;;;20.70;42.90;;;;;;5123807;28;19911;-53
2023/05/14 05:29:03;;;;;;;;;;;20.70;42.90;;;;;;5127534;28;19922;-53
2023/05/14 05:31:29;;;;;;;;;;;20.80;43.00;;;;;;5125199;28;19967;-52
2023/05/14 05:33:54;;;;;;;;;;;20.80;43.00;;;;;;5129793;28;20326;-54
2023/05/14 05:36:20;;;;;;;;;;;20.80;43.00;;;;;;5111195;28;19916;-54
2023/05/14 05:38:45;;;;;;;;;;;20.80;43.10;;;;;;5102148;28;19915;-54
2023/05/14 05:41:11;;;;;;;;;;;20.80;43.00;;;;;;5126105;28;19958;-54
2023/05/14 05:43:36;;;;;;;;;;;20.80;43.20;;;;;;5108564;28;19924;-54
2023/05/14 05:46:02;;;;;;;;;;;20.80;43.20;;;;;;5112298;28;19912;-54
2023/05/14 05:48:27;;;;;;;;;;;20.70;43.20;;;;;;5109639;28;19920;-52
2023/05/14 05:50:53;;;;;;;;;;;20.80;43.30;;;;;;5110051;28;19916;-54
2023/05/14 05:53:18;;;;;;;;;;;20.80;43.30;;;;;;5114877;28;19920;-54
2023/05/14 05:55:44;;;;;;;;;;;20.80;43.30;;;;;;5112737;28;20296;-55
2023/05/14 05:58:09;;;;;;;;;;;20.70;43.30;;;;;;5114171;28;20319;-52
2023/05/14 06:00:35;;;;;;;;;;;20.70;43.30;;;;;;5112842;28;19920;-52
2023/05/14 06:03:00;;;;;;;;;;;20.70;43.50;;;;;;5110328;28;19920;-52
2023/05/14 06:05:26;;;;;;;;;;;20.70;43.50;;;;;;5114201;28;20284;-52
2023/05/14 06:07:54;;;;;;;;;;;20.70;43.60;;;;;;5113762;28;19915;-52
2023/05/14 06:10:19;;;;;;;;;;;20.70;43.60;;;;;;5113795;28;20018;-53
2023/05/14 06:12:45;;;;;;;;;;;20.70;43.70;;;;;;5113716;28;20053;-53
2023/05/14 06:15:11;;;;;;;;;;;20.60;43.70;;;;;;5113745;28;19971;-53
2023/05/14 06:17:36;;;;;;;;;;;20.70;43.80;;;;;;5113394;28;19915;-53
2023/05/14 06:20:04;;;;;;;;;;;20.70;43.80;;;;;;5113969;28;20621;-53
2023/05/14 06:22:29;;;;;;;;;;;20.70;43.90;;;;;;5110046;28;20518;-53
2023/05/14 06:24:55;;;;;;;;;;;20.70;43.80;;;;;;5110969;28;19922;-53
2023/05/14 06:27:20;;;;;;;;;;;20.70;43.90;;;;;;5112623;28;19918;-52
2023/05/14 06:29:46;;;;;;;;;;;20.70;44.00;;;;;;5105222;28;19922;-53
2023/05/14 06:32:14;;;;;;;;;;;20.70;44.00;;;;;;5112010;28;19912;-53
2023/05/14 06:34:40;;;;;;;;;;;20.70;44.00;;;;;;5114085;28;19920;-53
2023/05/14 06:37:05;;;;;;;;;;;20.70;44.10;;;;;;5110786;28;20403;-54
2023/05/14 06:39:31;;;;;;;;;;;20.70;44.10;;;;;;5115209;28;19908;-53
2023/05/14 06:41:56;;;;;;;;;;;20.70;44.10;;;;;;5115307;27;19918;-53
2023/05/14 06:44:22;;;;;;;;;;;20.70;44.20;;;;;;5123771;27;19922;-53
2023/05/14 06:46:47;;;;;;;;;;;20.70;44.10;;;;;;5130725;27;20371;-53
2023/05/14 06:49:13;;;;;;;;;;;20.70;44.20;;;;;;5115327;27;20375;-56
2023/05/14 06:51:39;;;;;;;;;;;20.70;44.10;;;;;;5130729;27;20304;-53
2023/05/14 06:54:05;;;;;;;;;;;20.70;44.20;;;;;;5134573;27;19913;-53
2023/05/14 06:56:30;;;;;;;;;;;20.70;44.20;;;;;;5132980;27;20343;-53
2023/05/14 06:58:55;;;;;;;;;;;20.70;44.20;;;;;;5134204;27;20384;-54
2023/05/14 07:01:21;;;;;;;;;;;20.70;44.20;;;;;;5114607;27;19961;-54
2023/05/14 07:03:46;;;;;;;;;;;20.70;44.30;;;;;;5130762;27;19919;-54
2023/05/14 07:06:12;;;;;;;;;;;20.70;44.30;;;;;;5114811;27;19918;-53
2023/05/14 07:08:38;;;;;;;;;;;20.70;44.20;;;;;;5115259;27;19922;-54
2023/05/14 07:11:03;;;;;;;;;;;20.80;44.40;;;;;;5132600;27;19912;-54
2023/05/14 07:13:29;;;;;;;;;;;20.70;44.30;;;;;;5130686;27;19915;-54
2023/05/14 07:15:54;;;;;;;;;;;20.80;44.40;;;;;;5132198;27;19915;-54
2023/05/14 07:18:20;;;;;;;;;;;20.80;44.40;;;;;;5111472;27;19916;-54
2023/05/14 07:20:46;;;;;;;;;;;20.80;44.40;;;;;;5131857;27;19939;-55
2023/05/14 07:23:11;;;;;;;;;;;20.80;44.50;;;;;;5130437;27;19919;-54
2023/05/14 07:25:37;;;;;;;;;;;20.80;44.50;;;;;;5129440;27;19919;-53
2023/05/14 07:28:02;;;;;;;;;;;20.80;44.60;;;;;;5132373;27;19915;-54
2023/05/14 07:30:28;;;;;;;;;;;20.80;44.50;;;;;;5128333;27;20006;-54
2023/05/14 07:32:53;;;;;;;;;;;20.80;44.60;;;;;;5128738;27;19916;-54
2023/05/14 07:35:19;;;;;;;;;;;20.80;44.70;;;;;;5127381;27;19956;-54
2023/05/14 07:37:44;;;;;;;;;;;20.80;44.60;;;;;;5129895;27;19924;-54
2023/05/14 07:40:10;;;;;;;;;;;20.80;44.70;;;;;;5131242;27;19916;-54
2023/05/14 07:42:35;;;;;;;;;;;20.80;44.70;;;;;;5122470;27;20402;-54
2023/05/14 07:45:01;;;;;;;;;;;20.80;44.80;;;;;;5112463;27;20317;-53
2023/05/14 07:47:26;;;;;;;;;;;20.80;44.80;;;;;;5109591;27;19956;-54
2023/05/14 07:49:55;;;;;;;;;;;20.90;44.80;;;;;;5111772;27;19915;-54
2023/05/14 07:52:21;;;;;;;;;;;20.80;44.90;;;;;;5131350;27;19998;-54
2023/05/14 07:54:46;;;;;;;;;;;20.80;44.90;;;;;;5095044;28;20022;-54
2023/05/14 07:57:12;;;;;;;;;;;20.90;44.90;;;;;;5110341;27;19923;-54
2023/05/14 07:59:37;;;;;;;;;;;20.80;44.80;;;;;;5130542;27;20053;-54
2023/05/14 08:02:03;;;;;;;;;;;20.90;44.90;;;;;;5133115;27;19912;-53
2023/05/14 08:04:28;;;;;;;;;;;20.90;44.90;;;;;;5130372;27;19912;-54
2023/05/14 08:06:55;;;;;;;;;;;20.80;44.90;;;;;;5132813;27;19962;-54
2023/05/14 08:09:20;;;;;;;;;;;20.80;44.90;;;;;;5131842;27;19915;-54
2023/05/14 08:11:45;;;;;;;;;;;20.80;44.70;;;;;;5131731;27;19911;-54
2023/05/14 08:14:11;;;;;;;;;;;20.90;44.50;;;;;;5130175;27;19918;-54
2023/05/14 08:16:37;;;;;;;;;;;20.90;44.40;;;;;;5131142;27;19919;-54
2023/05/14 08:19:03;;;;;;;;;;;20.90;44.50;;;;;;5114145;27;19911;-54
2023/05/14 08:21:28;;;;;;;;;;;21.00;44.50;;;;;;5112242;27;19964;-54
2023/05/14 08:23:54;;;;;;;;;;;21.10;44.00;;;;;;5124586;27;19965;-54
2023/05/14 08:26:20;;;;;;;;;;;21.10;43.90;;;;;;5107056;27;19915;-54
2023/05/14 08:28:46;;;;;;;;;;;21.10;43.60;;;;;;5125096;27;19923;-54
2023/05/14 08:31:13;;;;;;;;;;;21.20;43.50;;;;;;5120566;27;20409;-54
2023/05/14 08:33:38;;;;;;;;;;;21.20;43.40;;;;;;5127494;27;19951;-54
2023/05/14 08:36:04;;;;;;;;;;;21.20;43.60;;;;;;5130217;27;20023;-55
2023/05/14 08:38:30;;;;;;;;;;;21.30;43.30;;;;;;5131834;27;19915;-54
2023/05/14 08:40:56;;;;;;;;;;;21.30;42.60;;;;;;5131479;27;19913;-55
2023/05/14 08:43:23;;;;;;;;;;;21.40;42.70;;;;;;5128714;27;19978;-54
2023/05/14 08:45:49;;;;;;;;;;;21.40;42.50;;;;;;5104690;27;19994;-55
2023/05/14 08:48:14;;;;;;;;;;;21.40;42.80;;;;;;5108166;27;20052;-54
2023/05/14 08:50:40;;;;;;;;;;;21.40;42.40;;;;;;5120453;27;19915;-54
2023/05/14 08:53:05;;;;;;;;;;;21.50;42.90;;;;;;5113296;27;19907;-54
2023/05/14 08:55:32;;;;;;;;;;;21.50;42.60;;;;;;5109435;27;19918;-54
2023/05/14 08:57:58;;;;;;;;;;;21.50;43.10;;;;;;5126747;27;20015;-54
2023/05/14 09:00:25;;;;;;;;;;;21.50;42.40;;;;;;5132692;27;19958;-54
2023/05/14 09:02:50;;;;;;;;;;;21.50;43.10;;;;;;5127379;27;19915;-54
2023/05/14 09:05:16;;;;;;;;;;;21.60;41.80;;;;;;5114197;28;19917;-54
2023/05/14 09:07:41;;;;;;;;;;;21.60;41.20;;;;;;5132460;27;19914;-54
2023/05/14 09:10:07;;;;;;;;;;;21.60;41.20;;;;;;5114362;28;19908;-54
2023/05/14 09:12:33;;;;;;;;;;;21.70;40.90;;;;;;5110026;28;19915;-55
2023/05/14 09:14:58;;;;;;;;;;;21.60;41.10;;;;;;5096679;28;19912;-54
2023/05/14 09:17:24;;;;;;;;;;;21.70;40.10;;;;;;5127659;27;20404;-54
2023/05/14 09:19:51;;;;;;;;;;;21.70;39.70;;;;;;5134411;27;19915;-54
2023/05/14 09:22:17;;;;;;;;;;;21.70;39.30;;;;;;5135276;27;19958;-55
2023/05/14 09:24:43;;;;;;;;;;;21.80;39.50;;;;;;5118357;27;19947;-54
2023/05/14 09:27:09;;;;;;;;;;;21.80;38.40;;;;;;5136408;27;20340;-54
2023/05/14 09:29:35;;;;;;;;;;;21.80;38.80;;;;;;5113329;27;20026;-54
2023/05/14 09:32:04;;;;;;;;;;;21.80;39.60;;;;;;5121862;27;19987;-54
2023/05/14 09:34:33;;;;;;;;;;;21.80;39.80;;;;;;5136993;27;19919;-54
2023/05/14 09:37:00;;;;;;;;;;;21.80;39.50;;;;;;5133663;27;19994;-54
2023/05/14 09:39:25;;;;;;;;;;;21.80;38.80;;;;;;5113088;27;20355;-54
2023/05/14 09:41:51;;;;;;;;;;;21.90;38.00;;;;;;5130335;27;20041;-54
2023/05/14 09:44:16;;;;;;;;;;;22.00;38.20;;;;;;5132313;27;20371;-54
2023/05/14 09:46:42;;;;;;;;;;;21.90;39.00;;;;;;5125827;27;19915;-54
2023/05/14 09:49:08;;;;;;;;;;;21.90;38.40;;;;;;5121471;27;19911;-54
2023/05/14 09:51:33;;;;;;;;;;;22.00;38.10;;;;;;5133468;27;20439;-54
2023/05/14 09:53:59;;;;;;;;;;;22.10;38.10;;;;;;5110188;27;20368;-54
2023/05/14 09:56:24;;;;;;;;;;;22.10;37.50;;;;;;5131612;27;20378;-53
2023/05/14 09:58:50;;;;;;;;;;;22.10;38.50;;;;;;5107892;27;19963;-53
2023/05/14 10:01:15;;;;;;;;;;;22.10;38.30;;;;;;5133039;27;19960;-54
2023/05/14 10:03:41;;;;;;;;;;;22.00;38.70;;;;;;5113313;27;19911;-54
2023/05/14 10:06:07;;;;;;;;;;;22.10;38.10;;;;;;5113226;27;19915;-54
2023/05/14 10:08:34;;;;;;;;;;;22.20;38.10;;;;;;5113549;27;19916;-54
2023/05/14 10:11:00;;;;;;;;;;;22.20;37.90;;;;;;5130395;27;19970;-54
2023/05/14 10:13:29;;;;;;;;;;;22.30;37.20;;;;;;5112751;27;20010;-54
2023/05/14 10:15:55;;;;;;;;;;;22.30;38.80;;;;;;5130172;27;20392;-54
2023/05/14 10:18:21;;;;;;;;;;;22.30;38.60;;;;;;5129454;27;19923;-54
2023/05/14 10:20:47;;;;;;;;;;;22.20;37.60;;;;;;5134700;27;19911;-54
2023/05/14 10:23:13;;;;;;;;;;;22.20;38.20;;;;;;5134410;27;20290;-53
2023/05/14 10:25:39;;;;;;;;;;;22.20;37.60;;;;;;5132297;27;19983;-54
2023/05/14 10:28:04;;;;;;;;;;;22.20;36.70;;;;;;5116787;27;19912;-54
2023/05/14 10:30:30;;;;;;;;;;;22.30;37.10;;;;;;5111350;27;20294;-53
2023/05/14 10:33:06;;;;;;;;;;;22.40;36.80;;;;;;5134500;27;20049;-53
2023/05/14 10:35:31;;;;;;;;;;;22.50;36.40;;;;;;5124749;27;19918;-54
2023/05/14 10:37:57;;;;;;;;;;;22.50;35.50;;;;;;5113454;27;19912;-53
2023/05/14 10:40:22;;;;;;;;;;;22.60;35.60;;;;;;5116730;27;20006;-54
2023/05/14 10:42:48;;;;;;;;;;;22.60;35.40;;;;;;5115382;27;19946;-54
2023/05/14 10:45:13;;;;;;;;;;;22.60;35.30;;;;;;5110640;27;20060;-53
2023/05/14 10:47:43;;;;;;;;;;;22.60;35.60;;;;;;5126130;27;19927;-54
2023/05/14 10:50:09;;;;;;;;;;;22.50;35.60;;;;;;5111712;27;20006;-54
2023/05/14 10:52:35;;;;;;;;;;;22.40;35.40;;;;;;5112847;27;19950;-54
2023/05/14 10:55:01;;;;;;;;;;;22.40;35.10;;;;;;5103786;27;19919;-54
2023/05/14 10:57:27;;;;;;;;;;;22.30;35.20;;;;;;5106603;27;20041;-54
2023/05/14 10:59:53;;;;;;;;;;;22.30;35.40;;;;;;5101657;27;19926;-54
2023/05/14 11:02:20;;;;;;;;;;;22.40;35.40;;;;;;5107896;27;19915;-54
2023/05/14 11:04:55;;;;;;;;;;;22.40;35.10;;;;;;5120591;27;19923;-53
2023/05/14 11:07:22;;;;;;;;;;;22.30;35.20;;;;;;5116017;27;19911;-54
2023/05/14 11:09:48;;;;;;;;;;;22.30;35.00;;;;;;5133449;27;20061;-53
2023/05/14 11:12:13;;;;;;;;;;;22.30;35.20;;;;;;5108878;27;20443;-52
2023/05/14 11:14:38;;;;;;;;;;;22.30;35.40;;;;;;5111946;27;20356;-53
2023/05/14 11:17:04;;;;;;;;;;;22.20;35.50;;;;;;5134923;27;19907;-54
2023/05/14 11:19:29;;;;;;;;;;;22.20;35.80;;;;;;5130561;27;19915;-53
2023/05/14 11:21:55;;;;;;;;;;;22.10;35.80;;;;;;5126229;27;19915;-54
2023/05/14 11:24:20;;;;;;;;;;;22.10;36.20;;;;;;5132353;27;19916;-54
2023/05/14 11:26:46;;;;;;;;;;;22.00;36.10;;;;;;5116192;27;19915;-54
2023/05/14 11:29:11;;;;;;;;;;;22.00;36.20;;;;;;5130099;27;19916;-53
2023/05/14 11:31:37;;;;;;;;;;;22.00;36.30;;;;;;5120820;27;19923;-52
2023/05/14 11:34:04;;;;;;;;;;;22.00;36.40;;;;;;5127891;27;20172;-53
2023/05/14 11:36:30;;;;;;;;;;;22.10;36.50;;;;;;5132216;27;19942;-53
2023/05/14 11:38:55;;;;;;;;;;;22.10;36.40;;;;;;5132499;27;19957;-53
2023/05/14 11:41:21;;;;;;;;;;;22.00;36.10;;;;;;5134108;27;19934;-53
2023/05/14 11:43:47;;;;;;;;;;;22.00;35.70;;;;;;5127489;27;19924;-53
2023/05/14 11:46:17;;;;;;;;;;;22.00;36.00;;;;;;5095108;28;20402;-53
2023/05/14 11:48:42;;;;;;;;;;;22.10;35.90;;;;;;5121691;27;19957;-53
2023/05/14 11:51:07;;;;;;;;;;;22.00;35.80;;;;;;5132746;27;19915;-52
2023/05/14 11:53:33;;;;;;;;;;;22.00;35.70;;;;;;5115882;27;19912;-52
2023/05/14 11:55:58;;;;;;;;;;;22.00;35.60;;;;;;5134175;27;19916;-52
2023/05/14 11:58:24;;;;;;;;;;;21.90;35.30;;;;;;5133852;27;19914;-52
2023/05/14 12:00:50;;;;;;;;;;;22.00;35.10;;;;;;5130705;27;19911;-53
2023/05/14 12:03:21;;;;;;;;;;;22.00;35.10;;;;;;5111788;27;19915;-52
2023/05/14 12:05:56;;;;;;;;;;;22.00;35.10;;;;;;5139333;27;19919;-52
2023/05/14 12:08:22;;;;;;;;;;;22.10;35.00;;;;;;5130547;27;19918;-53
2023/05/14 12:10:47;;;;;;;;;;;22.30;34.90;;;;;;5133985;27;19912;-51
2023/05/14 12:13:17;;;;;;;;;;;22.40;34.50;;;;;;5131754;27;20410;-53
2023/05/14 12:15:46;;;;;;;;;;;22.50;34.50;;;;;;5129332;27;20419;-52
2023/05/14 12:18:11;;;;;;;;;;;22.60;34.40;;;;;;5115239;27;19907;-53
2023/05/14 12:20:37;;;;;;;;;;;22.70;34.30;;;;;;5133441;27;19911;-52
2023/05/14 12:23:02;;;;;;;;;;;22.60;34.10;;;;;;5094304;28;20355;-53
2023/05/14 12:25:28;;;;;;;;;;;22.70;34.20;;;;;;5101881;27;20282;-53
2023/05/14 12:27:53;;;;;;;;;;;22.80;34.10;;;;;;5133081;27;19911;-53
2023/05/14 12:30:18;;;;;;;;;;;22.80;33.90;;;;;;5127899;27;19925;-52
2023/05/14 12:32:44;;;;;;;;;;;22.80;33.60;;;;;;5112189;27;19912;-52
2023/05/14 12:35:10;;;;;;;;;;;22.70;33.60;;;;;;5125148;27;19918;-53
2023/05/14 12:37:36;;;;;;;;;;;22.80;33.80;;;;;;5114926;27;20383;-53
2023/05/14 12:40:13;;;;;;;;;;;22.80;33.40;;;;;;5132150;27;19952;-52
2023/05/14 12:42:39;;;;;;;;;;;22.70;33.20;;;;;;5116395;28;20377;-53
2023/05/14 12:45:06;;;;;;;;;;;22.80;33.20;;;;;;5126363;27;19915;-52
2023/05/14 12:47:32;;;;;;;;;;;22.80;33.20;;;;;;5133421;27;19908;-53
2023/05/14 12:49:57;;;;;;;;;;;22.80;33.40;;;;;;5129506;27;19915;-53
2023/05/14 12:52:23;;;;;;;;;;;22.80;33.60;;;;;;5131565;27;19942;-53
2023/05/14 12:54:48;;;;;;;;;;;22.80;33.60;;;;;;5133262;27;20409;-53
2023/05/14 12:57:14;;;;;;;;;;;22.80;33.80;;;;;;5133171;27;19959;-53
2023/05/14 12:59:40;;;;;;;;;;;22.80;34.00;;;;;;5133703;27;20006;-53
2023/05/14 13:02:05;;;;;;;;;;;22.80;34.00;;;;;;5129517;27;19916;-54
2023/05/14 13:04:31;;;;;;;;;;;22.80;33.10;;;;;;5133621;27;19908;-53
2023/05/14 13:06:56;;;;;;;;;;;22.90;33.30;;;;;;5133572;27;20360;-53
2023/05/14 13:09:22;;;;;;;;;;;22.90;32.60;;;;;;5133086;27;19912;-53
2023/05/14 13:11:47;;;;;;;;;;;23.00;32.30;;;;;;5115020;28;19907;-54
2023/05/14 13:14:12;;;;;;;;;;;23.10;32.40;;;;;;5132430;28;19917;-53
2023/05/14 13:16:38;;;;;;;;;;;23.10;32.20;;;;;;5131087;28;19911;-53
2023/05/14 13:19:03;;;;;;;;;;;22.90;32.10;;;;;;5115643;28;19918;-53
2023/05/14 13:21:30;;;;;;;;;;;22.90;32.30;;;;;;5128791;28;19959;-53
2023/05/14 13:23:55;;;;;;;;;;;22.80;32.50;;;;;;5112496;28;20014;-54
2023/05/14 13:26:21;;;;;;;;;;;22.90;32.40;;;;;;5131501;28;19923;-54
2023/05/14 13:28:46;;;;;;;;;;;23.00;32.40;;;;;;5132733;27;19911;-54
2023/05/14 13:31:13;;;;;;;;;;;23.10;32.70;;;;;;5131173;28;19918;-53
2023/05/14 13:33:39;;;;;;;;;;;23.20;32.70;;;;;;5131422;28;19911;-53
2023/05/14 13:36:05;;;;;;;;;;;23.10;32.90;;;;;;5130513;28;19911;-53
2023/05/14 13:38:30;;;;;;;;;;;23.10;33.00;;;;;;5132289;28;19971;-53
2023/05/14 13:41:00;;;;;;;;;;;23.00;33.20;;;;;;5131673;28;20328;-53
2023/05/14 13:43:26;;;;;;;;;;;22.90;33.30;;;;;;5126078;28;20405;-53
2023/05/14 13:45:51;;;;;;;;;;;22.80;33.20;;;;;;5110099;28;19998;-53
2023/05/14 13:48:16;;;;;;;;;;;22.80;33.70;;;;;;5112125;28;19912;-53
2023/05/14 13:50:42;;;;;;;;;;;22.80;33.80;;;;;;5127402;28;19915;-54
2023/05/14 13:53:07;;;;;;;;;;;22.70;34.00;;;;;;5131674;28;19912;-53
2023/05/14 13:55:36;;;;;;;;;;;22.70;34.00;;;;;;5114693;28;19953;-53
2023/05/14 13:58:01;;;;;;;;;;;22.70;34.00;;;;;;5113584;28;20021;-53
2023/05/14 14:00:27;;;;;;;;;;;22.70;34.00;;;;;;5131912;28;20378;-54
2023/05/14 14:02:52;;;;;;;;;;;22.70;34.10;;;;;;5113078;28;19911;-53
2023/05/14 14:05:18;;;;;;;;;;;22.70;34.00;;;;;;5128625;27;19912;-53
2023/05/14 14:07:43;;;;;;;;;;;22.70;34.00;;;;;;5114324;28;20296;-53